createdAt,value
2023-02-13T00:00:34.905Z,8.55
2023-02-13T00:03:02.238Z,8.73
2023-02-13T00:05:29.207Z,9.80
2023-02-13T00:07:57.288Z,9.27
2023-02-13T00:10:24.629Z,9.05
2023-02-13T00:12:51.559Z,9.57
2023-02-13T00:15:18.665Z,9.15
2023-02-13T00:17:45.643Z,9.52
2023-02-13T00:20:12.879Z,10.23
2023-02-13T00:22:40.353Z,12.30
2023-02-13T00:25:08.446Z,8.10
2023-02-13T00:27:35.479Z,12.50
2023-02-13T00:30:03.330Z,7.50
2023-02-13T00:32:31.151Z,16.40
2023-02-13T00:34:58.357Z,13.60
2023-02-13T00:37:25.884Z,12.35
2023-02-13T00:39:53.226Z,10.35
2023-02-13T00:42:24.144Z,12.25
2023-02-13T00:44:51.095Z,14.60
2023-02-13T00:47:18.249Z,12.75
2023-02-13T00:49:45.117Z,11.77
2023-02-13T00:52:12.483Z,12.57
2023-02-13T00:54:39.352Z,11.20
2023-02-13T00:57:06.271Z,11.43
2023-02-13T00:59:33.238Z,12.90
2023-02-13T01:02:00.332Z,11.52
2023-02-13T01:04:27.346Z,10.57
2023-02-13T01:06:54.238Z,9.30
2023-02-13T01:09:21.133Z,10.35
2023-02-13T01:11:48.021Z,8.30
2023-02-13T01:14:14.890Z,10.57
2023-02-13T01:16:41.767Z,8.85
2023-02-13T01:19:08.656Z,9.27
2023-02-13T01:21:35.579Z,8.52
2023-02-13T01:24:06.182Z,10.30
2023-02-13T01:26:33.145Z,8.50
2023-02-13T01:29:00.150Z,8.13
2023-02-13T01:31:27.765Z,8.30
2023-02-13T01:33:59.829Z,10.93
2023-02-13T01:36:27.405Z,7.97
2023-02-13T01:38:56.992Z,9.50
2023-02-13T01:41:26.032Z,6.75
2023-02-13T01:43:54.473Z,7.43
2023-02-13T01:46:38.682Z,8.95
2023-02-13T01:49:18.812Z,6.72
2023-02-13T01:51:47.352Z,9.80
2023-02-13T01:54:18.513Z,8.45
2023-02-13T01:56:53.873Z,9.05
2023-02-13T01:59:29.538Z,8.52
2023-02-13T02:01:58.547Z,7.90
2023-02-13T02:04:31.103Z,10.27
2023-02-13T02:07:11.689Z,5.95
2023-02-13T02:09:41.081Z,9.93
2023-02-13T02:12:38.147Z,10.48
2023-02-13T02:15:06.466Z,7.03
2023-02-13T02:17:33.808Z,8.93
2023-02-13T02:20:46.062Z,7.45
2023-02-13T02:23:36.717Z,12.88
2023-02-13T02:26:18.915Z,8.63
2023-02-13T02:29:12.149Z,10.27
2023-02-13T02:31:48.372Z,9.18
2023-02-13T02:34:51.858Z,9.63
2023-02-13T02:37:30.897Z,9.75
2023-02-13T02:40:12.840Z,8.30
2023-02-13T02:43:08.631Z,10.77
2023-02-13T02:45:53.572Z,9.48
2023-02-13T02:48:52.780Z,9.45
2023-02-13T02:51:25.202Z,9.63
2023-02-13T02:54:27.854Z,8.27
2023-02-13T02:56:59.457Z,10.48
2023-02-13T02:59:46.861Z,10.43
2023-02-13T03:02:34.503Z,8.13
2023-02-13T03:05:21.649Z,6.55
2023-02-13T03:07:49.492Z,8.02
2023-02-13T03:10:50.112Z,6.60
2023-02-13T03:13:39.952Z,5.45
2023-02-13T03:16:30.158Z,10.80
2023-02-13T03:19:16.798Z,7.35
2023-02-13T03:22:20.254Z,7.00
2023-02-13T03:25:04.924Z,12.35
2023-02-13T03:28:08.459Z,7.75
2023-02-13T03:31:01.006Z,14.73
2023-02-13T03:33:43.327Z,11.60
2023-02-13T03:36:44.206Z,9.10
2023-02-13T03:39:35.215Z,7.95
2023-02-13T03:42:06.846Z,11.68
2023-02-13T03:44:39.824Z,7.18
2023-02-13T03:47:09.415Z,10.05
2023-02-13T03:50:03.354Z,6.55
2023-02-13T03:52:36.065Z,6.70
2023-02-13T03:55:41.620Z,9.38
2023-02-13T03:58:33.122Z,12.30
2023-02-13T04:01:02.886Z,17.30
2023-02-13T04:03:36.429Z,10.90
2023-02-13T04:06:09.580Z,11.25
2023-02-13T04:08:36.632Z,11.82
2023-02-13T04:11:30.675Z,6.38
2023-02-13T04:14:00.583Z,7.70
2023-02-13T04:16:40.362Z,8.73
2023-02-13T04:19:09.106Z,7.20
2023-02-13T04:21:37.734Z,9.10
2023-02-13T04:24:04.813Z,9.00
2023-02-13T04:26:38.136Z,12.27
2023-02-13T04:29:05.420Z,11.23
2023-02-13T04:31:32.583Z,6.63
2023-02-13T04:33:59.519Z,8.80
2023-02-13T04:36:26.915Z,10.27
2023-02-13T04:38:53.854Z,11.93
2023-02-13T04:41:20.804Z,8.52
2023-02-13T04:43:47.779Z,9.73
2023-02-13T04:46:14.733Z,7.75
2023-02-13T04:48:41.689Z,9.05
2023-02-13T04:51:08.634Z,7.82
2023-02-13T04:53:35.517Z,10.82
2023-02-13T04:56:02.428Z,10.68
2023-02-13T04:58:29.339Z,11.25
2023-02-13T05:00:56.589Z,10.07
2023-02-13T05:03:23.715Z,7.60
2023-02-13T05:05:50.888Z,7.68
2023-02-13T05:08:18.053Z,8.90
2023-02-13T05:10:44.992Z,8.70
2023-02-13T05:13:12.307Z,7.45
2023-02-13T05:15:39.288Z,12.63
2023-02-13T05:18:06.251Z,10.02
2023-02-13T05:20:33.185Z,12.57
2023-02-13T05:23:19.009Z,11.90
2023-02-13T05:25:45.902Z,13.23
2023-02-13T05:28:31.747Z,14.65
2023-02-13T05:30:59.058Z,14.18
2023-02-13T05:33:26.344Z,12.02
2023-02-13T05:35:53.249Z,11.85
2023-02-13T05:38:20.195Z,19.55
2023-02-13T05:40:47.082Z,12.02
2023-02-13T05:43:13.961Z,9.52
2023-02-13T05:45:40.882Z,12.57
2023-02-13T05:48:07.825Z,12.68
2023-02-13T05:50:34.756Z,13.30
2023-02-13T05:53:01.748Z,10.05
2023-02-13T05:55:28.629Z,10.32
2023-02-13T05:57:58.717Z,11.57
2023-02-13T06:00:25.864Z,11.37
2023-02-13T06:02:52.815Z,8.80
2023-02-13T06:05:19.761Z,10.32
2023-02-13T06:07:46.682Z,15.50
2023-02-13T06:10:13.555Z,15.48
2023-02-13T06:12:40.500Z,11.88
2023-02-13T06:15:07.820Z,12.45
2023-02-13T06:17:34.696Z,16.80
2023-02-13T06:20:01.581Z,12.57
2023-02-13T06:22:28.518Z,19.40
2023-02-13T06:24:55.406Z,19.73
2023-02-13T06:27:22.271Z,21.60
2023-02-13T06:29:49.224Z,23.63
2023-02-13T06:32:16.135Z,21.48
2023-02-13T06:34:42.972Z,24.75
2023-02-13T06:37:10.116Z,19.95
2023-02-13T06:39:37.053Z,21.42
2023-02-13T06:42:03.970Z,16.55
2023-02-13T06:44:30.851Z,20.35
2023-02-13T06:46:57.788Z,17.05
2023-02-13T06:49:24.664Z,16.83
2023-02-13T06:51:51.582Z,11.00
2023-02-13T06:54:18.452Z,14.05
2023-02-13T06:56:45.295Z,18.27
2023-02-13T06:59:12.169Z,19.42
2023-02-13T07:01:39.392Z,14.70
2023-02-13T07:04:06.274Z,18.58
2023-02-13T07:06:33.649Z,19.35
2023-02-13T07:09:03.029Z,19.20
2023-02-13T07:11:30.165Z,19.15
2023-02-13T07:13:57.189Z,11.93
2023-02-13T07:16:24.187Z,15.75
2023-02-13T07:18:51.120Z,19.00
2023-02-13T07:21:18.043Z,29.35
2023-02-13T07:23:44.916Z,26.05
2023-02-13T07:26:11.804Z,28.70
2023-02-13T07:28:38.768Z,18.52
2023-02-13T07:31:06.281Z,23.65
2023-02-13T07:33:34.393Z,16.65
2023-02-13T07:36:03.688Z,13.05
2023-02-13T07:38:33.872Z,14.70
2023-02-13T07:41:02.365Z,14.73
2023-02-13T07:43:30.037Z,14.23
2023-02-13T07:46:01.447Z,18.40
2023-02-13T07:48:29.051Z,16.30
2023-02-13T07:51:00.746Z,14.48
2023-02-13T07:53:27.717Z,13.20
2023-02-13T07:55:54.729Z,15.18
2023-02-13T07:58:21.769Z,17.55
2023-02-13T08:00:48.695Z,19.10
2023-02-13T08:03:15.578Z,23.90
2023-02-13T08:05:42.487Z,18.67
2023-02-13T08:08:09.477Z,16.75
2023-02-13T08:10:54.971Z,14.48
2023-02-13T08:13:21.908Z,20.33
2023-02-13T08:15:48.768Z,15.63
2023-02-13T08:18:16.662Z,16.60
2023-02-13T08:20:44.683Z,23.02
2023-02-13T08:23:12.504Z,19.00
2023-02-13T08:25:39.649Z,15.43
2023-02-13T08:28:06.889Z,14.63
2023-02-13T08:30:33.870Z,12.82
2023-02-13T08:33:00.803Z,13.18
2023-02-13T08:35:29.911Z,10.45
2023-02-13T08:37:56.912Z,8.73
2023-02-13T08:40:25.538Z,11.20
2023-02-13T08:42:52.923Z,15.10
2023-02-13T08:45:19.948Z,11.05
2023-02-13T08:47:46.848Z,10.05
2023-02-13T08:50:13.869Z,10.07
2023-02-13T08:52:40.711Z,12.25
2023-02-13T08:55:07.822Z,10.38
2023-02-13T08:57:34.756Z,12.68
2023-02-13T09:00:01.664Z,15.18
2023-02-13T09:02:28.583Z,16.55
2023-02-13T09:04:55.445Z,14.07
2023-02-13T09:07:22.351Z,10.27
2023-02-13T09:09:49.257Z,9.10
2023-02-13T09:12:16.126Z,10.93
2023-02-13T09:14:42.969Z,12.32
2023-02-13T09:17:09.862Z,9.07
2023-02-13T09:19:36.773Z,8.00
2023-02-13T09:22:03.696Z,9.45
2023-02-13T09:24:30.591Z,8.55
2023-02-13T09:26:57.468Z,11.82
2023-02-13T09:29:24.368Z,8.98
2023-02-13T09:31:51.401Z,8.50
2023-02-13T09:34:18.390Z,10.00
2023-02-13T09:36:45.250Z,11.05
2023-02-13T09:39:12.119Z,8.27
2023-02-13T09:41:42.463Z,13.32
2023-02-13T09:44:35.557Z,9.13
2023-02-13T09:47:22.710Z,10.68
2023-02-13T09:49:54.014Z,9.98
2023-02-13T09:52:21.278Z,9.68
2023-02-13T09:54:48.198Z,11.15
2023-02-13T09:57:27.784Z,9.63
2023-02-13T10:00:15.523Z,10.80
2023-02-13T10:02:57.493Z,8.82
2023-02-13T10:05:35.680Z,8.02
2023-02-13T10:08:34.060Z,8.15
2023-02-13T10:11:34.840Z,9.13
2023-02-13T10:14:22.072Z,9.43
2023-02-13T10:16:59.148Z,8.80
2023-02-13T10:19:31.827Z,9.57
2023-02-13T10:22:04.582Z,7.63
2023-02-13T10:25:04.439Z,9.52
2023-02-13T10:27:44.778Z,10.93
2023-02-13T10:30:34.981Z,11.13
2023-02-13T10:33:19.966Z,10.13
2023-02-13T10:36:08.591Z,11.90
2023-02-13T10:38:54.274Z,9.75
2023-02-13T10:41:41.045Z,8.32
2023-02-13T10:44:23.846Z,10.52
2023-02-13T10:47:18.372Z,14.20
2023-02-13T10:50:12.027Z,10.32
2023-02-13T10:53:16.487Z,9.60
2023-02-13T10:56:01.400Z,7.38
2023-02-13T10:58:44.285Z,12.50
2023-02-13T11:01:23.876Z,6.95
2023-02-13T11:04:06.296Z,6.32
2023-02-13T11:06:36.195Z,5.55
2023-02-13T11:09:04.848Z,7.43
2023-02-13T11:11:34.347Z,5.25
2023-02-13T11:14:10.609Z,6.63
2023-02-13T11:16:56.852Z,7.90
2023-02-13T11:19:48.494Z,8.45
2023-02-13T11:22:25.527Z,7.53
2023-02-13T11:25:05.273Z,7.97
2023-02-13T11:27:37.959Z,9.30
2023-02-13T11:30:23.922Z,5.60
2023-02-13T11:33:00.362Z,5.95
2023-02-13T11:35:30.970Z,7.47
2023-02-13T11:38:23.004Z,8.02
2023-02-13T11:40:54.398Z,6.05
2023-02-13T11:43:28.187Z,6.03
2023-02-13T11:46:07.884Z,8.55
2023-02-13T11:48:35.729Z,7.60
2023-02-13T11:51:03.679Z,8.93
2023-02-13T11:53:36.009Z,4.97
2023-02-13T11:56:12.113Z,4.05
2023-02-13T11:58:40.869Z,4.57
2023-02-13T12:01:20.096Z,5.32
2023-02-13T12:04:18.048Z,3.78
2023-02-13T12:07:22.784Z,4.82
2023-02-13T12:09:57.544Z,7.53
2023-02-13T12:13:03.772Z,5.28
2023-02-13T12:15:33.845Z,4.35
2023-02-13T12:18:27.744Z,5.53
2023-02-13T12:21:15.179Z,6.30
2023-02-13T12:24:20.769Z,6.40
2023-02-13T12:27:26.213Z,10.70
2023-02-13T12:30:27.289Z,7.60
2023-02-13T12:33:03.652Z,6.72
2023-02-13T12:36:04.445Z,5.57
2023-02-13T12:38:32.036Z,6.97
2023-02-13T12:41:12.267Z,6.57
2023-02-13T12:44:22.403Z,6.22
2023-02-13T12:47:09.489Z,4.80
2023-02-13T12:50:11.668Z,7.82
2023-02-13T12:53:29.617Z,8.00
2023-02-13T12:56:14.880Z,6.72
2023-02-13T12:59:00.508Z,8.60
2023-02-13T13:01:56.944Z,10.93
2023-02-13T13:04:51.576Z,7.93
2023-02-13T13:07:33.274Z,7.57
2023-02-13T13:10:00.139Z,7.82
2023-02-13T13:13:10.137Z,8.80
2023-02-13T13:15:47.368Z,6.95
2023-02-13T13:18:26.398Z,8.50
2023-02-13T13:21:08.424Z,6.25
2023-02-13T13:23:47.994Z,4.47
2023-02-13T13:26:39.041Z,6.60
2023-02-13T13:29:12.102Z,6.50
2023-02-13T13:31:39.846Z,7.20
2023-02-13T13:34:14.462Z,4.10
2023-02-13T13:37:03.994Z,7.55
2023-02-13T13:39:40.348Z,8.35
2023-02-13T13:42:10.005Z,9.85
2023-02-13T13:44:49.303Z,8.57
2023-02-13T13:47:50.121Z,8.55
2023-02-13T13:50:28.807Z,5.47
2023-02-13T13:53:25.636Z,6.28
2023-02-13T13:55:58.458Z,3.92
2023-02-13T13:58:33.125Z,7.03
2023-02-13T14:01:15.642Z,8.25
2023-02-13T14:03:44.961Z,6.38
2023-02-13T14:06:14.732Z,6.00
2023-02-13T14:08:41.639Z,8.95
2023-02-13T14:11:29.595Z,5.85
2023-02-13T14:13:56.749Z,7.10
2023-02-13T14:16:42.580Z,6.45
2023-02-13T14:19:31.374Z,6.45
2023-02-13T14:22:31.627Z,6.30
2023-02-13T14:25:06.445Z,10.80
2023-02-13T14:27:38.754Z,8.82
2023-02-13T14:30:22.284Z,10.20
2023-02-13T14:32:49.300Z,9.95
2023-02-13T14:35:27.538Z,8.80
2023-02-13T14:38:00.014Z,11.52
2023-02-13T14:40:29.375Z,7.22
2023-02-13T14:42:59.269Z,11.00
2023-02-13T14:45:32.633Z,13.50
2023-02-13T14:48:07.550Z,14.80
2023-02-13T14:50:47.564Z,12.55
2023-02-13T14:53:26.438Z,11.27
2023-02-13T14:56:02.736Z,8.15
2023-02-13T14:58:36.512Z,22.00
2023-02-13T15:01:22.514Z,17.85
2023-02-13T15:04:00.062Z,13.13
2023-02-13T15:06:36.048Z,11.50
2023-02-13T15:09:15.527Z,16.25
2023-02-13T15:11:44.589Z,14.10
2023-02-13T15:14:34.273Z,13.90
2023-02-13T15:17:09.884Z,10.98
2023-02-13T15:19:39.602Z,8.07
2023-02-13T15:22:07.466Z,10.23
2023-02-13T15:24:46.164Z,11.00
2023-02-13T15:27:20.110Z,12.73
2023-02-13T15:29:57.535Z,5.95
2023-02-13T15:32:39.658Z,5.05
2023-02-13T15:35:23.627Z,4.88
2023-02-13T15:37:50.813Z,6.30
2023-02-13T15:40:27.833Z,6.30
2023-02-13T15:42:56.671Z,5.47
2023-02-13T15:45:26.300Z,5.68
2023-02-13T15:47:56.191Z,7.20
2023-02-13T15:50:35.241Z,7.40
2023-02-13T15:53:10.292Z,11.68
2023-02-13T15:55:38.527Z,6.07
2023-02-13T15:58:05.721Z,5.35
2023-02-13T16:00:36.452Z,8.63
2023-02-13T16:03:07.754Z,8.63
2023-02-13T16:05:41.328Z,6.03
2023-02-13T16:08:29.655Z,8.10
2023-02-13T16:11:18.504Z,7.38
2023-02-13T16:14:21.781Z,7.05
2023-02-13T16:16:55.173Z,7.75
2023-02-13T16:19:40.174Z,9.07
2023-02-13T16:22:27.635Z,8.25
2023-02-13T16:25:09.964Z,6.20
2023-02-13T16:27:37.118Z,6.70
2023-02-13T16:30:07.833Z,10.88
2023-02-13T16:32:41.362Z,10.90
2023-02-13T16:35:27.259Z,8.48
2023-02-13T16:38:01.913Z,8.80
2023-02-13T16:40:31.473Z,11.10
2023-02-13T16:43:33.686Z,6.15
2023-02-13T16:46:15.743Z,9.68
2023-02-13T16:48:44.100Z,6.30
2023-02-13T16:51:11.665Z,7.43
2023-02-13T16:53:39.957Z,7.00
2023-02-13T16:56:10.923Z,5.95
2023-02-13T16:58:38.047Z,8.05
2023-02-13T17:01:06.183Z,12.27
2023-02-13T17:03:33.513Z,10.20
2023-02-13T17:06:04.303Z,6.78
2023-02-13T17:08:32.432Z,48.85
2023-02-13T17:11:07.904Z,12.45
2023-02-13T17:13:35.103Z,8.57
2023-02-13T17:16:02.179Z,6.78
2023-02-13T17:18:32.516Z,7.00
2023-02-13T17:21:00.530Z,9.98
2023-02-13T17:23:28.194Z,8.57
2023-02-13T17:25:55.978Z,9.45
2023-02-13T17:28:29.451Z,6.82
2023-02-13T17:30:59.959Z,5.45
2023-02-13T17:33:46.265Z,6.18
2023-02-13T17:36:18.321Z,6.68
2023-02-13T17:38:55.752Z,5.95
2023-02-13T17:41:23.128Z,10.30
2023-02-13T17:43:50.191Z,8.52
2023-02-13T17:46:17.406Z,11.40
2023-02-13T17:48:44.680Z,12.07
2023-02-13T17:51:14.937Z,6.40
2023-02-13T17:53:42.132Z,5.68
2023-02-13T17:56:09.030Z,3.50
2023-02-13T17:58:35.899Z,3.40
2023-02-13T18:01:03.535Z,6.30
2023-02-13T18:03:30.591Z,11.80
2023-02-13T18:05:57.490Z,6.40
2023-02-13T18:08:24.632Z,4.32
2023-02-13T18:10:51.480Z,11.30
2023-02-13T18:13:18.454Z,5.15
2023-02-13T18:15:45.939Z,5.97
2023-02-13T18:18:15.981Z,8.55
2023-02-13T18:20:43.849Z,4.13
2023-02-13T18:23:10.733Z,7.05
2023-02-13T18:25:37.662Z,6.78
2023-02-13T18:28:04.532Z,6.03
2023-02-13T18:30:31.535Z,6.65
2023-02-13T18:32:59.397Z,3.60
2023-02-13T18:35:26.830Z,8.20
2023-02-13T18:37:53.775Z,7.65
2023-02-13T18:40:21.274Z,8.70
2023-02-13T18:42:51.144Z,7.57
2023-02-13T18:45:18.130Z,5.07
2023-02-13T18:47:45.070Z,7.95
2023-02-13T18:50:12.233Z,8.40
2023-02-13T18:52:39.135Z,6.07
2023-02-13T18:55:07.363Z,7.82
2023-02-13T18:57:34.415Z,5.38
2023-02-13T19:00:01.313Z,6.78
2023-02-13T19:02:28.345Z,6.13
2023-02-13T19:04:55.236Z,5.05
2023-02-13T19:07:22.116Z,7.47
2023-02-13T19:09:49.043Z,5.43
2023-02-13T19:12:15.958Z,9.45
2023-02-13T19:14:44.173Z,5.32
2023-02-13T19:17:11.269Z,4.55
2023-02-13T19:19:38.204Z,8.45
2023-02-13T19:22:05.056Z,6.32
2023-02-13T19:24:31.968Z,7.28
2023-02-13T19:27:00.459Z,4.90
2023-02-13T19:29:27.798Z,6.80
2023-02-13T19:31:55.008Z,5.05
2023-02-13T19:34:21.922Z,9.00
2023-02-13T19:36:50.104Z,5.85
2023-02-13T19:39:17.102Z,5.95
2023-02-13T19:41:44.686Z,7.63
2023-02-13T19:44:11.608Z,6.85
2023-02-13T19:46:38.703Z,8.15
2023-02-13T19:49:06.375Z,10.02
2023-02-13T19:51:34.619Z,13.52
2023-02-13T19:54:04.203Z,11.93
2023-02-13T19:56:32.861Z,12.75
2023-02-13T19:58:59.915Z,11.43
2023-02-13T20:01:28.553Z,13.75
2023-02-13T20:03:56.076Z,14.32
2023-02-13T20:06:28.300Z,14.27
2023-02-13T20:08:59.773Z,15.55
2023-02-13T20:11:26.982Z,21.85
2023-02-13T20:14:00.685Z,25.70
2023-02-13T20:16:28.105Z,27.55
2023-02-13T20:18:55.018Z,33.13
2023-02-13T20:21:22.147Z,40.25
2023-02-13T20:23:51.329Z,38.88
2023-02-13T20:26:18.804Z,27.13
2023-02-13T20:28:46.934Z,22.38
2023-02-13T20:31:17.204Z,17.42
2023-02-13T20:33:44.631Z,11.02
2023-02-13T20:36:13.424Z,14.93
2023-02-13T20:38:40.924Z,11.18
2023-02-13T20:41:15.888Z,10.55
2023-02-13T20:43:43.666Z,5.90
2023-02-13T20:46:10.931Z,6.65
2023-02-13T20:48:39.831Z,5.30
2023-02-13T20:51:11.646Z,3.15
2023-02-13T20:53:39.808Z,6.10
2023-02-13T20:56:16.180Z,5.32
2023-02-13T20:58:44.520Z,6.30
2023-02-13T21:01:29.526Z,6.20
2023-02-13T21:03:57.030Z,6.75
2023-02-13T21:06:27.318Z,5.57
2023-02-13T21:08:54.381Z,7.25
2023-02-13T21:11:22.685Z,7.03
2023-02-13T21:13:50.460Z,4.00
2023-02-13T21:16:23.138Z,4.95
2023-02-13T21:18:52.768Z,5.43
2023-02-13T21:21:21.737Z,3.92
2023-02-13T21:23:51.899Z,6.13
2023-02-13T21:26:18.775Z,10.10
2023-02-13T21:28:47.996Z,5.82
2023-02-13T21:31:29.309Z,5.00
2023-02-13T21:34:08.435Z,5.07
2023-02-13T21:36:36.820Z,6.53
2023-02-13T21:39:06.002Z,5.15
2023-02-13T21:41:33.374Z,5.25
2023-02-13T21:44:02.432Z,4.18
2023-02-13T21:46:31.114Z,6.68
2023-02-13T21:49:03.799Z,6.63
2023-02-13T21:51:32.760Z,11.00
2023-02-13T21:54:02.601Z,9.63
2023-02-13T21:56:32.341Z,5.22
2023-02-13T21:59:00.224Z,8.60
2023-02-13T22:01:34.883Z,6.57
2023-02-13T22:04:07.329Z,9.25
2023-02-13T22:06:36.552Z,5.32
2023-02-13T22:09:09.959Z,7.68
2023-02-13T22:11:37.982Z,9.75
2023-02-13T22:14:06.398Z,8.57
2023-02-13T22:16:35.992Z,7.47
2023-02-13T22:19:04.093Z,13.35
2023-02-13T22:21:32.635Z,9.38
2023-02-13T22:24:00.227Z,6.00
2023-02-13T22:26:29.619Z,10.85
2023-02-13T22:29:01.250Z,3.03
2023-02-13T22:31:28.555Z,5.65
2023-02-13T22:34:05.252Z,4.50
2023-02-13T22:36:34.358Z,6.68
2023-02-13T22:39:01.299Z,5.95
2023-02-13T22:41:28.237Z,4.82
2023-02-13T22:43:55.483Z,4.28
2023-02-13T22:46:29.111Z,6.07
2023-02-13T22:48:56.591Z,5.25
2023-02-13T22:51:29.925Z,10.10
2023-02-13T22:53:58.715Z,7.85
2023-02-13T22:56:27.739Z,7.95
2023-02-13T22:58:55.209Z,9.73
2023-02-13T23:01:24.244Z,6.00
2023-02-13T23:03:51.847Z,4.63
2023-02-13T23:06:19.620Z,7.00
2023-02-13T23:08:49.129Z,8.38
2023-02-13T23:11:36.205Z,5.93
2023-02-13T23:14:04.296Z,7.38
2023-02-13T23:16:50.313Z,8.38
2023-02-13T23:19:17.229Z,6.47
2023-02-13T23:21:44.513Z,6.03
2023-02-13T23:24:11.427Z,4.18
2023-02-13T23:26:38.735Z,7.15
2023-02-13T23:29:05.688Z,7.18
2023-02-13T23:31:32.629Z,7.57
2023-02-13T23:33:59.531Z,3.85
2023-02-13T23:36:26.483Z,6.75
2023-02-13T23:38:53.369Z,8.23
2023-02-13T23:41:21.102Z,7.72
2023-02-13T23:43:48.351Z,5.75
2023-02-13T23:46:15.323Z,5.97
2023-02-13T23:48:42.407Z,3.95
2023-02-13T23:51:09.383Z,3.67
2023-02-13T23:53:36.923Z,8.15
2023-02-13T23:56:05.160Z,4.07
2023-02-13T23:58:32.090Z,13.85
